Terminal Aerodrome Forecast
Issued by NWS

Home | Current Version | Previous Version | Text Only | Print | Product List | Glossary Off
Versions: 1 2 3 4 5 6 7 8 9 10 11 12

000
FTUS43 KFGF 242320
TAFBJI
TAF
KBJI 242320Z 2500/2524 31012G18KT P6SM BKN050
     FM250400 31009KT P6SM SCT040
     FM251200 33007KT P6SM SKC=

USA.gov is the U.S. government's official web portal to all federal, state and local government web resources and services.